createdAt,value
2023-04-23T00:00:38.751Z,23.48
2023-04-23T00:03:10.701Z,24.85
2023-04-23T00:05:42.118Z,23.27
2023-04-23T00:08:11.478Z,22.87
2023-04-23T00:10:39.635Z,22.27
2023-04-23T00:13:07.849Z,24.58
2023-04-23T00:15:36.454Z,24.27
2023-04-23T00:18:04.409Z,24.10
2023-04-23T00:20:32.366Z,22.60
2023-04-23T00:23:01.961Z,22.40
2023-04-23T00:25:29.856Z,24.33
2023-04-23T00:27:57.721Z,21.17
2023-04-23T00:30:25.565Z,24.10
2023-04-23T00:32:53.397Z,24.03
2023-04-23T00:35:21.597Z,23.63
2023-04-23T00:37:49.757Z,22.75
2023-04-23T00:40:20.525Z,22.38
2023-04-23T00:42:49.203Z,22.27
2023-04-23T00:45:18.031Z,23.27
2023-04-23T00:47:47.296Z,22.73
2023-04-23T00:50:15.156Z,24.40
2023-04-23T00:52:43.112Z,23.73
2023-04-23T00:55:11.042Z,23.67
2023-04-23T00:57:40.811Z,24.70
2023-04-23T01:00:09.751Z,24.35
2023-04-23T01:02:39.063Z,24.80
2023-04-23T01:05:10.770Z,25.60
2023-04-23T01:07:39.338Z,27.13
2023-04-23T01:10:09.040Z,26.13
2023-04-23T01:12:36.804Z,25.48
2023-04-23T01:15:07.807Z,24.70
2023-04-23T01:17:35.761Z,26.00
2023-04-23T01:20:06.246Z,26.92
2023-04-23T01:22:36.200Z,26.67
2023-04-23T01:25:04.500Z,25.85
2023-04-23T01:27:33.428Z,27.27
2023-04-23T01:30:03.490Z,27.48
2023-04-23T01:32:31.852Z,26.98
2023-04-23T01:35:00.898Z,27.50
2023-04-23T01:37:30.706Z,27.77
2023-04-23T01:40:00.047Z,28.00
2023-04-23T01:42:28.051Z,26.63
2023-04-23T01:44:56.030Z,28.50
2023-04-23T01:47:24.206Z,27.23
2023-04-23T01:49:52.351Z,28.92
2023-04-23T01:52:20.500Z,28.90
2023-04-23T01:54:48.305Z,27.10
2023-04-23T01:57:24.064Z,26.77
2023-04-23T01:59:52.087Z,27.90
2023-04-23T02:02:21.098Z,27.25
2023-04-23T02:04:50.172Z,28.67
2023-04-23T02:07:17.915Z,29.10
2023-04-23T02:09:45.986Z,28.40
2023-04-23T02:12:14.054Z,29.53
2023-04-23T02:14:43.588Z,28.95
2023-04-23T02:17:12.387Z,29.75
2023-04-23T02:19:40.821Z,28.70
2023-04-23T02:22:09.355Z,28.33
2023-04-23T02:24:38.933Z,27.87
2023-04-23T02:27:06.801Z,28.70
2023-04-23T02:29:34.798Z,28.60
2023-04-23T02:32:04.251Z,28.02
2023-04-23T02:34:32.050Z,28.13
2023-04-23T02:36:59.787Z,28.23
2023-04-23T02:39:27.549Z,26.67
2023-04-23T02:41:56.331Z,26.08
2023-04-23T02:44:24.049Z,26.77
2023-04-23T02:46:52.155Z,27.52
2023-04-23T02:49:21.420Z,27.27
2023-04-23T02:51:49.349Z,28.58
2023-04-23T02:54:17.608Z,27.80
2023-04-23T02:56:45.518Z,26.95
2023-04-23T02:59:13.416Z,26.60
2023-04-23T03:01:41.402Z,26.13
2023-04-23T03:04:10.957Z,28.77
2023-04-23T03:06:40.469Z,28.92
2023-04-23T03:09:08.891Z,27.45
2023-04-23T03:11:37.031Z,28.00
2023-04-23T03:14:05.115Z,26.37
2023-04-23T03:16:33.340Z,26.73
2023-04-23T03:19:01.989Z,27.08
2023-04-23T03:21:29.823Z,27.60
2023-04-23T03:23:58.961Z,27.50
2023-04-23T03:26:26.795Z,27.83
2023-04-23T03:28:54.699Z,26.83
2023-04-23T03:31:22.743Z,26.83
2023-04-23T03:33:50.805Z,25.63
2023-04-23T03:36:24.733Z,26.65
2023-04-23T03:38:52.808Z,27.70
2023-04-23T03:41:22.589Z,26.38
2023-04-23T03:43:51.202Z,27.05
2023-04-23T03:46:22.799Z,25.60
2023-04-23T03:48:50.712Z,25.92
2023-04-23T03:51:25.337Z,26.60
2023-04-23T03:53:53.153Z,26.40
2023-04-23T03:56:40.737Z,26.75
2023-04-23T03:59:14.546Z,26.17
2023-04-23T04:01:42.909Z,28.35
2023-04-23T04:04:10.859Z,25.93
2023-04-23T04:06:38.758Z,25.77
2023-04-23T04:09:08.040Z,26.98
2023-04-23T04:11:35.874Z,26.83
2023-04-23T04:14:04.986Z,26.27
2023-04-23T04:16:32.777Z,26.07
2023-04-23T04:19:01.431Z,26.48
2023-04-23T04:21:29.964Z,25.35
2023-04-23T04:23:58.025Z,25.02
2023-04-23T04:26:25.946Z,25.25
2023-04-23T04:28:53.853Z,26.83
2023-04-23T04:31:23.408Z,25.42
2023-04-23T04:33:51.147Z,25.48
2023-04-23T04:36:19.335Z,25.02
2023-04-23T04:38:47.275Z,24.52
2023-04-23T04:41:15.364Z,23.83
2023-04-23T04:43:43.628Z,24.77
2023-04-23T04:46:12.216Z,25.42
2023-04-23T04:48:41.481Z,24.10
2023-04-23T04:51:09.277Z,25.65
2023-04-23T04:53:37.109Z,25.33
2023-04-23T04:56:05.318Z,24.63
2023-04-23T04:58:33.585Z,23.75
2023-04-23T05:01:02.028Z,22.77
2023-04-23T05:03:30.180Z,23.63
2023-04-23T05:05:59.632Z,24.90
2023-04-23T05:08:27.424Z,23.13
2023-04-23T05:10:55.363Z,22.60
2023-04-23T05:13:23.120Z,22.77
2023-04-23T05:15:50.952Z,22.42
2023-04-23T05:18:19.076Z,22.60
2023-04-23T05:20:46.974Z,22.60
2023-04-23T05:23:16.026Z,22.77
2023-04-23T05:25:43.893Z,22.02
2023-04-23T05:28:11.590Z,22.55
2023-04-23T05:30:39.469Z,21.73
2023-04-23T05:33:07.437Z,23.23
2023-04-23T05:35:35.664Z,22.13
2023-04-23T05:38:04.912Z,22.17
2023-04-23T05:40:34.384Z,21.38
2023-04-23T05:43:02.787Z,22.30
2023-04-23T05:45:30.600Z,22.13
2023-04-23T05:47:58.487Z,21.67
2023-04-23T05:50:26.401Z,21.05
2023-04-23T05:52:54.392Z,21.95
2023-04-23T05:55:23.882Z,21.50
2023-04-23T05:57:53.009Z,20.50
2023-04-23T06:00:20.806Z,21.33
2023-04-23T06:02:48.941Z,20.48
2023-04-23T06:05:16.991Z,21.77
2023-04-23T06:07:44.897Z,20.67
2023-04-23T06:10:13.317Z,21.02
2023-04-23T06:12:42.185Z,21.63
2023-04-23T06:15:12.101Z,21.52
2023-04-23T06:17:39.908Z,21.60
2023-04-23T06:20:11.636Z,21.77
2023-04-23T06:22:39.654Z,20.50
2023-04-23T06:25:08.052Z,21.77
2023-04-23T06:27:35.952Z,20.63
2023-04-23T06:30:13.375Z,21.98
2023-04-23T06:32:41.462Z,21.97
2023-04-23T06:35:09.953Z,20.92
2023-04-23T06:37:37.823Z,20.95
2023-04-23T06:40:06.984Z,21.02
2023-04-23T06:42:34.883Z,22.08
2023-04-23T06:45:16.316Z,21.83
2023-04-23T06:47:44.413Z,20.75
2023-04-23T06:50:12.560Z,21.13
2023-04-23T06:52:40.369Z,20.27
2023-04-23T06:55:09.794Z,19.92
2023-04-23T06:57:37.809Z,20.40
2023-04-23T07:00:08.179Z,20.80
2023-04-23T07:02:40.884Z,17.67
2023-04-23T07:05:10.409Z,17.77
2023-04-23T07:07:38.520Z,17.58
2023-04-23T07:10:08.127Z,16.33
2023-04-23T07:12:36.431Z,15.15
2023-04-23T07:15:05.124Z,15.63
2023-04-23T07:17:33.166Z,15.38
2023-04-23T07:20:06.426Z,13.00
2023-04-23T07:22:34.406Z,13.00
2023-04-23T07:25:02.766Z,13.27
2023-04-23T07:27:31.158Z,12.15
2023-04-23T07:29:59.736Z,12.40
2023-04-23T07:32:28.440Z,11.65
2023-04-23T07:34:57.325Z,11.87
2023-04-23T07:37:26.825Z,10.30
2023-04-23T07:39:54.674Z,11.35
2023-04-23T07:42:22.486Z,10.35
2023-04-23T07:44:50.322Z,9.70
2023-04-23T07:47:18.356Z,9.57
2023-04-23T07:49:46.243Z,9.23
2023-04-23T07:52:15.621Z,9.32
2023-04-23T07:54:46.295Z,9.85
2023-04-23T07:57:14.343Z,9.63
2023-04-23T07:59:42.573Z,9.80
2023-04-23T08:02:11.145Z,9.40
2023-04-23T08:04:39.337Z,9.38
2023-04-23T08:07:07.369Z,10.32
2023-04-23T08:09:35.315Z,9.25
2023-04-23T08:12:04.635Z,9.10
2023-04-23T08:14:32.708Z,9.60
2023-04-23T08:17:03.874Z,8.85
2023-04-23T08:19:33.694Z,9.00
2023-04-23T08:22:01.531Z,8.68
2023-04-23T08:24:29.290Z,8.10
2023-04-23T08:26:57.575Z,9.13
2023-04-23T08:29:26.639Z,7.90
2023-04-23T08:31:54.653Z,7.93
2023-04-23T08:34:22.616Z,7.50
2023-04-23T08:36:50.469Z,7.73
2023-04-23T08:39:18.391Z,7.00
2023-04-23T08:41:54.930Z,7.32
2023-04-23T08:44:24.617Z,7.15
2023-04-23T08:46:55.817Z,7.07
2023-04-23T08:49:24.286Z,6.90
2023-04-23T08:51:54.201Z,7.72
2023-04-23T08:54:26.776Z,6.20
2023-04-23T08:56:57.630Z,6.40
2023-04-23T08:59:27.361Z,6.22
2023-04-23T09:01:56.751Z,6.00
2023-04-23T09:04:25.675Z,5.95
2023-04-23T09:06:59.291Z,6.30
2023-04-23T09:09:30.194Z,5.90
2023-04-23T09:11:58.582Z,6.32
2023-04-23T09:14:27.145Z,6.07
2023-04-23T09:16:56.500Z,5.25
2023-04-23T09:19:27.657Z,5.85
2023-04-23T09:21:55.838Z,6.20
2023-04-23T09:24:24.125Z,5.18
2023-04-23T09:26:53.303Z,5.70
2023-04-23T09:29:23.491Z,5.85
2023-04-23T09:31:52.572Z,5.50
2023-04-23T09:34:22.667Z,4.78
2023-04-23T09:36:51.786Z,5.20
2023-04-23T09:39:21.649Z,5.40
2023-04-23T09:41:49.511Z,4.50
2023-04-23T09:44:19.307Z,4.72
2023-04-23T09:46:47.265Z,5.28
2023-04-23T09:49:15.945Z,4.32
2023-04-23T09:51:47.474Z,4.47
2023-04-23T09:54:18.561Z,5.57
2023-04-23T09:56:51.542Z,5.07
2023-04-23T09:59:32.498Z,4.25
2023-04-23T10:02:12.682Z,3.67
2023-04-23T10:04:42.009Z,3.40
2023-04-23T10:07:19.492Z,3.72
2023-04-23T10:09:48.325Z,3.65
2023-04-23T10:14:49.373Z,5.03
2023-04-23T10:17:17.796Z,4.73
2023-04-23T10:19:45.956Z,4.10
2023-04-23T10:22:19.818Z,3.85
2023-04-23T10:24:55.788Z,3.58
2023-04-23T10:27:36.776Z,3.17
2023-04-23T10:30:14.570Z,3.70
2023-04-23T10:32:43.153Z,2.90
2023-04-23T10:35:11.789Z,3.05
2023-04-23T10:37:41.699Z,2.80
2023-04-23T10:40:13.984Z,3.15
2023-04-23T10:42:43.797Z,2.77
2023-04-23T10:45:24.127Z,2.83
2023-04-23T10:47:54.689Z,3.13
2023-04-23T10:50:24.672Z,2.75
2023-04-23T10:52:54.615Z,2.88
2023-04-23T10:55:24.634Z,2.63
2023-04-23T10:58:03.699Z,3.58
2023-04-23T11:00:45.915Z,3.22
2023-04-23T11:03:42.483Z,2.92
2023-04-23T11:06:15.492Z,3.25
2023-04-23T11:08:54.984Z,2.60
2023-04-23T11:11:39.721Z,2.90
2023-04-23T11:14:15.349Z,2.83
2023-04-23T11:16:43.378Z,2.60
2023-04-23T11:19:13.199Z,2.58
2023-04-23T11:22:01.024Z,2.63
2023-04-23T11:24:31.469Z,2.58
2023-04-23T11:27:00.044Z,2.83
2023-04-23T11:29:29.205Z,4.22
2023-04-23T11:32:03.203Z,3.00
2023-04-23T11:34:33.169Z,2.80
2023-04-23T11:37:01.612Z,4.88
2023-04-23T11:39:31.161Z,3.72
2023-04-23T11:42:02.842Z,4.55
2023-04-23T11:44:31.594Z,4.63
2023-04-23T11:47:02.000Z,5.07
2023-04-23T11:49:30.082Z,3.00
2023-04-23T11:52:00.655Z,3.25
2023-04-23T11:54:30.536Z,3.90
2023-04-23T11:56:59.700Z,3.95
2023-04-23T11:59:27.434Z,4.97
2023-04-23T12:01:57.265Z,2.92
2023-04-23T12:04:27.291Z,3.08
2023-04-23T12:06:56.642Z,4.03
2023-04-23T12:09:26.375Z,3.75
2023-04-23T12:11:58.147Z,3.37
2023-04-23T12:14:30.659Z,4.45
2023-04-23T12:17:00.063Z,3.50
2023-04-23T12:19:29.950Z,5.35
2023-04-23T12:22:00.057Z,5.63
2023-04-23T12:24:29.619Z,5.57
2023-04-23T12:27:02.464Z,4.70
2023-04-23T12:29:31.726Z,5.25
2023-04-23T12:32:01.224Z,3.72
2023-04-23T12:34:29.189Z,6.97
2023-04-23T12:36:57.446Z,4.50
2023-04-23T12:39:33.980Z,4.30
2023-04-23T12:42:05.350Z,3.28
2023-04-23T12:44:34.611Z,6.63
2023-04-23T12:47:04.816Z,3.30
2023-04-23T12:49:35.010Z,2.90
2023-04-23T12:52:04.504Z,2.50
2023-04-23T12:54:33.611Z,2.83
2023-04-23T12:57:03.035Z,2.88
2023-04-23T12:59:31.129Z,2.75
2023-04-23T13:02:02.014Z,2.43
2023-04-23T13:04:30.755Z,2.50
2023-04-23T13:06:58.623Z,2.97
2023-04-23T13:09:27.941Z,2.75
2023-04-23T13:11:56.523Z,3.35
2023-04-23T13:14:25.973Z,4.03
2023-04-23T13:16:53.928Z,3.88
2023-04-23T13:19:21.824Z,3.08
2023-04-23T13:21:49.675Z,2.15
2023-04-23T13:24:17.451Z,2.35
2023-04-23T13:26:45.320Z,1.60
2023-04-23T13:29:13.302Z,1.85
2023-04-23T13:31:42.438Z,1.70
2023-04-23T13:34:10.258Z,2.10
2023-04-23T13:36:41.215Z,1.75
2023-04-23T13:39:10.949Z,2.53
2023-04-23T13:41:38.842Z,1.77
2023-04-23T13:44:06.790Z,1.75
2023-04-23T13:46:34.779Z,1.70
2023-04-23T13:49:03.979Z,1.63
2023-04-23T13:51:35.247Z,1.90
2023-04-23T13:54:04.328Z,1.83
2023-04-23T13:56:32.620Z,2.58
2023-04-23T13:59:17.575Z,1.67
2023-04-23T14:01:49.708Z,1.50
2023-04-23T14:04:19.996Z,1.70
2023-04-23T14:06:47.785Z,1.67
2023-04-23T14:09:15.765Z,1.58
2023-04-23T14:11:43.657Z,1.90
2023-04-23T14:14:11.652Z,1.35
2023-04-23T14:16:39.553Z,2.00
2023-04-23T14:19:07.694Z,2.50
2023-04-23T14:21:37.453Z,2.30
2023-04-23T14:24:10.579Z,2.70
2023-04-23T14:26:48.581Z,2.65
2023-04-23T14:29:26.208Z,2.40
2023-04-23T14:31:54.388Z,2.40
2023-04-23T14:34:22.419Z,2.05
2023-04-23T14:36:53.343Z,1.77
2023-04-23T14:39:22.714Z,1.77
2023-04-23T14:41:50.901Z,2.60
2023-04-23T14:44:19.004Z,1.83
2023-04-23T14:46:49.773Z,1.90
2023-04-23T14:49:17.534Z,2.20
2023-04-23T14:51:45.619Z,1.70
2023-04-23T14:54:14.789Z,1.80
2023-04-23T14:56:43.102Z,2.00
2023-04-23T14:59:11.017Z,1.80
2023-04-23T15:01:38.984Z,1.70
2023-04-23T15:04:06.885Z,1.25
2023-04-23T15:06:34.791Z,1.77
2023-04-23T15:09:02.572Z,1.95
2023-04-23T15:11:32.468Z,1.17
2023-04-23T15:14:04.494Z,1.30
2023-04-23T15:19:07.235Z,0.80
2023-04-23T15:21:35.186Z,0.80
2023-04-23T15:24:03.031Z,0.88
2023-04-23T15:26:33.672Z,1.00
2023-04-23T15:29:01.533Z,0.90
2023-04-23T15:31:29.702Z,1.10
2023-04-23T15:33:58.024Z,0.93
2023-04-23T15:36:25.848Z,1.10
2023-04-23T15:38:53.681Z,1.00
2023-04-23T15:41:21.432Z,2.65
2023-04-23T15:43:53.061Z,3.07
2023-04-23T15:46:21.032Z,1.50
2023-04-23T15:48:48.868Z,1.25
2023-04-23T15:51:16.980Z,1.17
2023-04-23T15:53:44.857Z,1.23
2023-04-23T15:56:12.694Z,1.57
2023-04-23T15:58:40.526Z,1.38
2023-04-23T16:01:09.940Z,2.10
2023-04-23T16:03:38.213Z,1.83
2023-04-23T16:06:06.709Z,1.55
2023-04-23T16:08:34.624Z,1.50
2023-04-23T16:11:03.437Z,1.63
2023-04-23T16:13:31.214Z,1.23
2023-04-23T16:15:59.134Z,1.85
2023-04-23T16:18:28.413Z,1.50
2023-04-23T16:20:56.180Z,1.80
2023-04-23T16:23:24.459Z,1.70
2023-04-23T16:25:52.217Z,1.30
2023-04-23T16:28:20.098Z,1.40
2023-04-23T16:30:48.184Z,1.30
2023-04-23T16:33:15.909Z,2.17
2023-04-23T16:35:45.171Z,2.75
2023-04-23T16:38:13.010Z,2.35
2023-04-23T16:40:40.994Z,2.60
2023-04-23T16:43:10.170Z,1.60
2023-04-23T16:45:39.784Z,1.50
2023-04-23T16:48:08.306Z,2.00
2023-04-23T16:50:36.323Z,1.60
2023-04-23T16:53:06.025Z,1.63
2023-04-23T16:55:33.873Z,1.60
2023-04-23T16:58:01.749Z,1.60
2023-04-23T17:00:29.696Z,1.30
2023-04-23T17:02:57.695Z,1.40
2023-04-23T17:05:25.944Z,1.50
2023-04-23T17:07:53.742Z,1.92
2023-04-23T17:10:23.007Z,2.23
2023-04-23T17:12:53.834Z,1.85
2023-04-23T17:15:22.653Z,2.00
2023-04-23T17:17:51.133Z,1.98
2023-04-23T17:20:19.018Z,2.05
2023-04-23T17:22:46.930Z,2.10
2023-04-23T17:25:14.764Z,2.25
2023-04-23T17:27:44.180Z,2.65
2023-04-23T17:30:13.065Z,2.10
2023-04-23T17:32:41.219Z,1.98
2023-04-23T17:35:10.849Z,2.20
2023-04-23T17:37:39.034Z,2.30
2023-04-23T17:40:09.647Z,2.30
2023-04-23T17:42:37.514Z,2.13
2023-04-23T17:45:07.726Z,2.63
2023-04-23T17:47:36.484Z,2.30
2023-04-23T17:50:04.474Z,2.17
2023-04-23T17:52:32.803Z,2.35
2023-04-23T17:55:00.938Z,2.10
2023-04-23T17:57:28.948Z,2.25
2023-04-23T17:59:59.224Z,2.10
2023-04-23T18:02:28.569Z,2.13
2023-04-23T18:04:56.537Z,1.90
2023-04-23T18:07:24.646Z,2.35
2023-04-23T18:09:52.623Z,2.00
2023-04-23T18:12:20.449Z,2.10
2023-04-23T18:14:48.249Z,2.38
2023-04-23T18:17:17.385Z,2.40
2023-04-23T18:19:46.441Z,2.08
2023-04-23T18:22:14.284Z,2.00
2023-04-23T18:24:42.471Z,1.90
2023-04-23T18:27:10.403Z,1.85
2023-04-23T18:29:38.229Z,1.90
2023-04-23T18:32:06.699Z,2.00
2023-04-23T18:34:39.666Z,1.92
2023-04-23T18:37:12.640Z,2.10
2023-04-23T18:39:41.189Z,2.10
2023-04-23T18:42:09.186Z,1.80
2023-04-23T18:44:37.097Z,1.75
2023-04-23T18:47:04.934Z,1.63
2023-04-23T18:49:44.652Z,1.93
2023-04-23T18:52:13.859Z,2.03
2023-04-23T18:54:42.019Z,1.90
2023-04-23T18:57:09.837Z,2.03
2023-04-23T18:59:37.575Z,1.60
2023-04-23T19:02:06.256Z,1.80
2023-04-23T19:04:34.478Z,2.08
2023-04-23T19:07:02.409Z,2.28
2023-04-23T19:09:31.493Z,2.13
2023-04-23T19:11:59.541Z,2.45
2023-04-23T19:14:27.236Z,2.33
2023-04-23T19:16:55.208Z,2.38
2023-04-23T19:19:24.307Z,2.05
2023-04-23T19:21:52.092Z,2.30
2023-04-23T19:24:19.960Z,2.20
2023-04-23T19:26:49.191Z,1.90
2023-04-23T19:29:16.999Z,2.25
2023-04-23T19:31:44.758Z,2.10
2023-04-23T19:34:13.251Z,2.30
2023-04-23T19:36:41.167Z,2.17
2023-04-23T19:39:09.363Z,2.07
2023-04-23T19:41:37.267Z,2.25
2023-04-23T19:44:06.888Z,2.15
2023-04-23T19:46:34.757Z,1.80
2023-04-23T19:49:02.557Z,2.22
2023-04-23T19:51:35.579Z,2.63
2023-04-23T19:54:03.533Z,2.30
2023-04-23T19:56:31.328Z,2.10
2023-04-23T19:58:59.172Z,2.33
2023-04-23T20:01:29.907Z,2.38
2023-04-23T20:03:58.050Z,2.00
2023-04-23T20:06:26.439Z,2.50
2023-04-23T20:09:07.410Z,2.58
2023-04-23T20:11:36.384Z,2.20
2023-04-23T20:14:04.819Z,1.90
2023-04-23T20:16:34.903Z,2.13
2023-04-23T20:19:04.810Z,2.20
2023-04-23T20:21:33.017Z,2.00
2023-04-23T20:24:00.843Z,2.00
2023-04-23T20:26:28.719Z,2.10
2023-04-23T20:28:57.251Z,1.87
2023-04-23T20:31:25.099Z,1.83
2023-04-23T20:33:54.473Z,1.60
2023-04-23T20:36:23.320Z,1.40
2023-04-23T20:38:54.211Z,1.85
2023-04-23T20:41:22.895Z,1.70
2023-04-23T20:43:50.909Z,2.08
2023-04-23T20:46:18.919Z,1.33
2023-04-23T20:48:52.914Z,1.35
2023-04-23T20:51:22.862Z,1.48
2023-04-23T20:53:51.428Z,1.53
2023-04-23T20:56:19.520Z,1.75
2023-04-23T20:58:47.353Z,1.60
2023-04-23T21:01:15.313Z,1.25
2023-04-23T21:03:43.362Z,1.27
2023-04-23T21:06:12.117Z,1.20
2023-04-23T21:08:42.982Z,0.98
2023-04-23T21:11:14.722Z,1.00
2023-04-23T21:13:43.101Z,1.00
2023-04-23T21:16:11.505Z,1.15
2023-04-23T21:18:39.662Z,1.00
2023-04-23T21:21:07.958Z,1.35
2023-04-23T21:23:36.313Z,1.30
2023-04-23T21:26:05.569Z,1.33
2023-04-23T21:28:33.475Z,1.15
2023-04-23T21:31:07.874Z,1.10
2023-04-23T21:33:35.891Z,1.00
2023-04-23T21:36:05.110Z,1.30
2023-04-23T21:38:34.377Z,1.20
2023-04-23T21:41:02.448Z,1.20
2023-04-23T21:43:35.461Z,1.30
2023-04-23T21:46:03.439Z,1.63
2023-04-23T21:48:32.025Z,1.50
2023-04-23T21:50:59.997Z,1.23
2023-04-23T21:53:27.900Z,1.25
2023-04-23T21:55:55.883Z,1.53
2023-04-23T21:58:23.704Z,1.30
2023-04-23T22:00:53.163Z,1.20
2023-04-23T22:03:33.391Z,1.20
2023-04-23T22:06:17.535Z,1.10
2023-04-23T22:08:46.261Z,1.20
2023-04-23T22:11:14.721Z,1.17
2023-04-23T22:13:42.461Z,1.50
2023-04-23T22:16:24.905Z,1.50
2023-04-23T22:18:56.604Z,1.45
2023-04-23T22:21:24.507Z,1.33
2023-04-23T22:23:52.422Z,1.38
2023-04-23T22:26:21.086Z,1.27
2023-04-23T22:28:48.997Z,1.55
2023-04-23T22:31:18.396Z,1.30
2023-04-23T22:33:46.447Z,1.40
2023-04-23T22:36:14.407Z,1.20
2023-04-23T22:38:42.261Z,1.15
2023-04-23T22:41:10.106Z,1.30
2023-04-23T22:43:37.845Z,1.20
2023-04-23T22:46:05.898Z,1.07
2023-04-23T22:48:37.669Z,1.10
2023-04-23T22:51:05.533Z,1.38
2023-04-23T22:53:33.324Z,1.17
2023-04-23T22:56:02.000Z,1.10
2023-04-23T22:58:32.918Z,1.23
2023-04-23T23:01:00.741Z,1.17
2023-04-23T23:03:28.809Z,1.30
2023-04-23T23:05:57.980Z,1.58
2023-04-23T23:08:25.814Z,1.40
2023-04-23T23:10:53.641Z,1.50
2023-04-23T23:13:21.411Z,1.50
2023-04-23T23:15:49.292Z,1.80
2023-04-23T23:18:17.024Z,1.60
2023-04-23T23:20:45.223Z,1.60
2023-04-23T23:23:14.320Z,1.57
2023-04-23T23:25:42.217Z,1.48
2023-04-23T23:28:10.041Z,1.60
2023-04-23T23:30:38.103Z,1.50
2023-04-23T23:33:06.465Z,1.40
2023-04-23T23:35:34.416Z,1.30
2023-04-23T23:38:02.268Z,1.10
2023-04-23T23:40:31.484Z,1.30
2023-04-23T23:42:59.266Z,1.33
2023-04-23T23:45:27.201Z,1.13
2023-04-23T23:47:55.563Z,1.30
2023-04-23T23:50:23.526Z,1.30
2023-04-23T23:52:51.698Z,1.20
2023-04-23T23:55:19.571Z,1.20
2023-04-23T23:57:48.730Z,1.45
